sensor_id;sensor_type;location;lat;lon;timestamp;P1;durP1;ratioP1;P2;durP2;ratioP2
51216;SDS011;37283;49.760;8.648;2023-02-12T00:01:24;22.38;;;15.82;;
51216;SDS011;37283;49.760;8.648;2023-02-12T00:03:51;21.23;;;15.43;;
51216;SDS011;37283;49.760;8.648;2023-02-12T00:06:18;22.35;;;16.17;;
51216;SDS011;37283;49.760;8.648;2023-02-12T00:08:47;21.98;;;16.23;;
51216;SDS011;37283;49.760;8.648;2023-02-12T00:11:15;22.83;;;15.45;;
51216;SDS011;37283;49.760;8.648;2023-02-12T00:13:43;20.75;;;15.27;;
51216;SDS011;37283;49.760;8.648;2023-02-12T00:16:11;21.90;;;14.88;;
51216;SDS011;37283;49.760;8.648;2023-02-12T00:18:40;22.85;;;15.88;;
51216;SDS011;37283;49.760;8.648;2023-02-12T00:21:07;22.50;;;16.00;;
51216;SDS011;37283;49.760;8.648;2023-02-12T00:23:36;22.48;;;16.80;;
51216;SDS011;37283;49.760;8.648;2023-02-12T00:26:05;21.05;;;15.88;;
51216;SDS011;37283;49.760;8.648;2023-02-12T00:28:32;25.53;;;16.00;;
51216;SDS011;37283;49.760;8.648;2023-02-12T00:31:10;20.80;;;15.88;;
51216;SDS011;37283;49.760;8.648;2023-02-12T00:33:38;21.40;;;16.38;;
51216;SDS011;37283;49.760;8.648;2023-02-12T00:36:06;22.75;;;16.42;;
51216;SDS011;37283;49.760;8.648;2023-02-12T00:38:33;22.08;;;16.35;;
51216;SDS011;37283;49.760;8.648;2023-02-12T00:41:01;22.48;;;16.08;;
51216;SDS011;37283;49.760;8.648;2023-02-12T00:43:27;24.23;;;16.50;;
51216;SDS011;37283;49.760;8.648;2023-02-12T00:45:54;22.23;;;16.30;;
51216;SDS011;37283;49.760;8.648;2023-02-12T00:48:21;21.88;;;16.10;;
51216;SDS011;37283;49.760;8.648;2023-02-12T00:50:48;25.25;;;16.85;;
51216;SDS011;37283;49.760;8.648;2023-02-12T00:53:16;24.45;;;17.25;;
51216;SDS011;37283;49.760;8.648;2023-02-12T00:55:43;23.63;;;17.17;;
51216;SDS011;37283;49.760;8.648;2023-02-12T00:58:10;23.20;;;16.88;;
51216;SDS011;37283;49.760;8.648;2023-02-12T01:00:36;21.73;;;16.70;;
51216;SDS011;37283;49.760;8.648;2023-02-12T01:03:03;24.85;;;17.23;;
51216;SDS011;37283;49.760;8.648;2023-02-12T01:05:31;23.52;;;16.98;;
51216;SDS011;37283;49.760;8.648;2023-02-12T01:07:57;23.88;;;17.38;;
51216;SDS011;37283;49.760;8.648;2023-02-12T01:10:24;23.85;;;17.35;;
51216;SDS011;37283;49.760;8.648;2023-02-12T01:12:51;23.17;;;17.27;;
51216;SDS011;37283;49.760;8.648;2023-02-12T01:15:18;24.13;;;17.17;;
51216;SDS011;37283;49.760;8.648;2023-02-12T01:17:45;21.33;;;17.08;;
51216;SDS011;37283;49.760;8.648;2023-02-12T01:20:12;23.98;;;17.95;;
51216;SDS011;37283;49.760;8.648;2023-02-12T01:22:42;21.27;;;16.60;;
51216;SDS011;37283;49.760;8.648;2023-02-12T01:25:10;26.45;;;17.63;;
51216;SDS011;37283;49.760;8.648;2023-02-12T01:27:37;25.33;;;18.75;;
51216;SDS011;37283;49.760;8.648;2023-02-12T01:30:04;23.73;;;17.42;;
51216;SDS011;37283;49.760;8.648;2023-02-12T01:32:32;23.63;;;18.08;;
51216;SDS011;37283;49.760;8.648;2023-02-12T01:35:00;25.77;;;19.40;;
51216;SDS011;37283;49.760;8.648;2023-02-12T01:37:26;22.70;;;16.92;;
51216;SDS011;37283;49.760;8.648;2023-02-12T01:39:53;24.83;;;18.23;;
51216;SDS011;37283;49.760;8.648;2023-02-12T01:42:20;26.67;;;17.75;;
51216;SDS011;37283;49.760;8.648;2023-02-12T01:47:38;23.45;;;16.80;;
51216;SDS011;37283;49.760;8.648;2023-02-12T01:50:06;22.25;;;16.60;;
51216;SDS011;37283;49.760;8.648;2023-02-12T01:52:33;26.42;;;18.00;;
51216;SDS011;37283;49.760;8.648;2023-02-12T01:55:03;19.67;;;15.07;;
51216;SDS011;37283;49.760;8.648;2023-02-12T01:57:33;23.50;;;15.48;;
51216;SDS011;37283;49.760;8.648;2023-02-12T02:00:03;19.55;;;15.32;;
51216;SDS011;37283;49.760;8.648;2023-02-12T02:02:39;21.63;;;14.95;;
51216;SDS011;37283;49.760;8.648;2023-02-12T02:05:05;20.25;;;15.55;;
51216;SDS011;37283;49.760;8.648;2023-02-12T02:07:32;23.10;;;16.25;;
51216;SDS011;37283;49.760;8.648;2023-02-12T02:09:59;20.98;;;15.68;;
51216;SDS011;37283;49.760;8.648;2023-02-12T02:12:27;20.70;;;15.70;;
51216;SDS011;37283;49.760;8.648;2023-02-12T02:15:12;21.10;;;15.63;;
51216;SDS011;37283;49.760;8.648;2023-02-12T02:17:45;23.90;;;15.95;;
51216;SDS011;37283;49.760;8.648;2023-02-12T02:26:05;21.15;;;15.60;;
51216;SDS011;37283;49.760;8.648;2023-02-12T02:31:47;21.85;;;16.77;;
51216;SDS011;37283;49.760;8.648;2023-02-12T02:34:46;24.85;;;16.15;;
51216;SDS011;37283;49.760;8.648;2023-02-12T02:37:18;21.52;;;16.33;;
51216;SDS011;37283;49.760;8.648;2023-02-12T02:39:58;22.23;;;16.55;;
51216;SDS011;37283;49.760;8.648;2023-02-12T02:45:13;24.05;;;16.58;;
51216;SDS011;37283;49.760;8.648;2023-02-12T02:47:49;24.38;;;16.83;;
51216;SDS011;37283;49.760;8.648;2023-02-12T02:50:19;24.65;;;17.90;;
51216;SDS011;37283;49.760;8.648;2023-02-12T02:55:23;23.98;;;17.73;;
51216;SDS011;37283;49.760;8.648;2023-02-12T02:58:04;26.48;;;18.08;;
51216;SDS011;37283;49.760;8.648;2023-02-12T03:00:36;23.98;;;17.67;;
51216;SDS011;37283;49.760;8.648;2023-02-12T03:03:52;24.20;;;17.25;;
51216;SDS011;37283;49.760;8.648;2023-02-12T03:05:56;26.40;;;17.73;;
51216;SDS011;37283;49.760;8.648;2023-02-12T03:08:26;21.52;;;16.63;;
51216;SDS011;37283;49.760;8.648;2023-02-12T03:10:56;22.40;;;16.90;;
51216;SDS011;37283;49.760;8.648;2023-02-12T03:13:28;26.27;;;17.75;;
51216;SDS011;37283;49.760;8.648;2023-02-12T03:15:59;23.48;;;17.45;;
51216;SDS011;37283;49.760;8.648;2023-02-12T03:18:32;27.63;;;17.77;;
51216;SDS011;37283;49.760;8.648;2023-02-12T03:21:12;23.92;;;16.77;;
51216;SDS011;37283;49.760;8.648;2023-02-12T03:23:41;22.67;;;16.55;;
51216;SDS011;37283;49.760;8.648;2023-02-12T03:26:11;23.95;;;17.77;;
51216;SDS011;37283;49.760;8.648;2023-02-12T03:28:39;21.98;;;17.20;;
51216;SDS011;37283;49.760;8.648;2023-02-12T03:31:19;23.67;;;17.45;;
51216;SDS011;37283;49.760;8.648;2023-02-12T03:37:01;26.20;;;17.73;;
51216;SDS011;37283;49.760;8.648;2023-02-12T03:39:44;23.48;;;17.05;;
51216;SDS011;37283;49.760;8.648;2023-02-12T03:42:27;25.63;;;16.90;;
51216;SDS011;37283;49.760;8.648;2023-02-12T03:47:40;24.05;;;16.55;;
51216;SDS011;37283;49.760;8.648;2023-02-12T03:50:21;24.27;;;17.23;;
51216;SDS011;37283;49.760;8.648;2023-02-12T03:52:55;24.13;;;16.95;;
51216;SDS011;37283;49.760;8.648;2023-02-12T03:55:21;24.15;;;18.13;;
51216;SDS011;37283;49.760;8.648;2023-02-12T03:57:49;26.00;;;17.90;;
51216;SDS011;37283;49.760;8.648;2023-02-12T04:00:19;27.50;;;20.17;;
51216;SDS011;37283;49.760;8.648;2023-02-12T04:02:49;24.00;;;17.77;;
51216;SDS011;37283;49.760;8.648;2023-02-12T04:05:21;30.73;;;19.17;;
51216;SDS011;37283;49.760;8.648;2023-02-12T04:07:49;28.80;;;20.67;;
51216;SDS011;37283;49.760;8.648;2023-02-12T04:10:17;26.38;;;19.80;;
51216;SDS011;37283;49.760;8.648;2023-02-12T04:12:49;28.58;;;19.15;;
51216;SDS011;37283;49.760;8.648;2023-02-12T04:18:28;25.60;;;19.42;;
51216;SDS011;37283;49.760;8.648;2023-02-12T04:21:04;26.58;;;19.95;;
51216;SDS011;37283;49.760;8.648;2023-02-12T04:26:25;26.08;;;19.20;;
51216;SDS011;37283;49.760;8.648;2023-02-12T04:28:58;24.20;;;18.40;;
51216;SDS011;37283;49.760;8.648;2023-02-12T04:31:40;28.60;;;20.27;;
51216;SDS011;37283;49.760;8.648;2023-02-12T04:36:58;29.52;;;21.08;;
51216;SDS011;37283;49.760;8.648;2023-02-12T04:39:28;30.65;;;21.70;;
51216;SDS011;37283;49.760;8.648;2023-02-12T04:41:57;33.38;;;21.33;;
51216;SDS011;37283;49.760;8.648;2023-02-12T04:44:28;31.65;;;22.60;;
51216;SDS011;37283;49.760;8.648;2023-02-12T04:46:57;32.55;;;22.88;;
51216;SDS011;37283;49.760;8.648;2023-02-12T04:49:24;33.05;;;23.02;;
51216;SDS011;37283;49.760;8.648;2023-02-12T04:51:51;34.60;;;24.35;;
51216;SDS011;37283;49.760;8.648;2023-02-12T04:54:18;32.90;;;23.20;;
51216;SDS011;37283;49.760;8.648;2023-02-12T04:56:45;31.55;;;21.85;;
51216;SDS011;37283;49.760;8.648;2023-02-12T04:59:12;33.55;;;23.75;;
51216;SDS011;37283;49.760;8.648;2023-02-12T05:01:39;35.15;;;23.25;;
51216;SDS011;37283;49.760;8.648;2023-02-12T05:04:07;32.47;;;21.65;;
51216;SDS011;37283;49.760;8.648;2023-02-12T05:06:37;34.40;;;22.57;;
51216;SDS011;37283;49.760;8.648;2023-02-12T05:09:04;32.38;;;21.63;;
51216;SDS011;37283;49.760;8.648;2023-02-12T05:11:31;30.38;;;21.15;;
51216;SDS011;37283;49.760;8.648;2023-02-12T05:13:58;33.72;;;22.92;;
51216;SDS011;37283;49.760;8.648;2023-02-12T05:16:24;33.80;;;21.88;;
51216;SDS011;37283;49.760;8.648;2023-02-12T05:18:51;31.80;;;23.23;;
51216;SDS011;37283;49.760;8.648;2023-02-12T05:21:17;31.15;;;23.02;;
51216;SDS011;37283;49.760;8.648;2023-02-12T05:23:44;33.97;;;22.65;;
51216;SDS011;37283;49.760;8.648;2023-02-12T05:26:14;34.33;;;23.85;;
51216;SDS011;37283;49.760;8.648;2023-02-12T05:28:43;37.15;;;25.23;;
51216;SDS011;37283;49.760;8.648;2023-02-12T05:31:10;39.40;;;25.42;;
51216;SDS011;37283;49.760;8.648;2023-02-12T05:33:43;35.88;;;25.35;;
51216;SDS011;37283;49.760;8.648;2023-02-12T05:36:11;39.83;;;25.98;;
51216;SDS011;37283;49.760;8.648;2023-02-12T05:38:39;42.63;;;26.90;;
51216;SDS011;37283;49.760;8.648;2023-02-12T05:41:27;37.22;;;24.95;;
51216;SDS011;37283;49.760;8.648;2023-02-12T05:43:53;42.97;;;27.13;;
51216;SDS011;37283;49.760;8.648;2023-02-12T05:46:19;43.60;;;27.27;;
51216;SDS011;37283;49.760;8.648;2023-02-12T05:48:46;39.40;;;25.80;;
51216;SDS011;37283;49.760;8.648;2023-02-12T05:51:20;42.20;;;27.30;;
51216;SDS011;37283;49.760;8.648;2023-02-12T05:53:49;41.72;;;27.85;;
51216;SDS011;37283;49.760;8.648;2023-02-12T05:56:18;44.17;;;27.58;;
51216;SDS011;37283;49.760;8.648;2023-02-12T05:58:46;43.05;;;27.38;;
51216;SDS011;37283;49.760;8.648;2023-02-12T06:01:15;44.10;;;27.83;;
51216;SDS011;37283;49.760;8.648;2023-02-12T06:06:10;44.60;;;27.52;;
51216;SDS011;37283;49.760;8.648;2023-02-12T06:08:37;42.65;;;27.98;;
51216;SDS011;37283;49.760;8.648;2023-02-12T06:11:05;46.30;;;29.08;;
51216;SDS011;37283;49.760;8.648;2023-02-12T06:13:34;43.78;;;28.63;;
51216;SDS011;37283;49.760;8.648;2023-02-12T06:16:00;46.30;;;29.10;;
51216;SDS011;37283;49.760;8.648;2023-02-12T06:18:27;42.35;;;27.00;;
51216;SDS011;37283;49.760;8.648;2023-02-12T06:20:54;44.85;;;28.45;;
51216;SDS011;37283;49.760;8.648;2023-02-12T06:23:22;45.25;;;28.10;;
51216;SDS011;37283;49.760;8.648;2023-02-12T06:25:49;43.75;;;27.42;;
51216;SDS011;37283;49.760;8.648;2023-02-12T06:28:16;44.10;;;26.73;;
51216;SDS011;37283;49.760;8.648;2023-02-12T06:30:43;42.85;;;28.30;;
51216;SDS011;37283;49.760;8.648;2023-02-12T06:33:09;49.17;;;27.90;;
51216;SDS011;37283;49.760;8.648;2023-02-12T06:35:36;41.65;;;27.08;;
51216;SDS011;37283;49.760;8.648;2023-02-12T06:38:03;45.03;;;27.88;;
51216;SDS011;37283;49.760;8.648;2023-02-12T06:40:30;45.78;;;28.05;;
51216;SDS011;37283;49.760;8.648;2023-02-12T06:42:56;46.88;;;28.13;;
51216;SDS011;37283;49.760;8.648;2023-02-12T06:45:23;47.38;;;29.13;;
51216;SDS011;37283;49.760;8.648;2023-02-12T06:47:50;49.85;;;29.08;;
51216;SDS011;37283;49.760;8.648;2023-02-12T06:50:17;48.60;;;29.17;;
51216;SDS011;37283;49.760;8.648;2023-02-12T06:52:43;52.58;;;30.30;;
51216;SDS011;37283;49.760;8.648;2023-02-12T06:55:10;52.63;;;30.15;;
51216;SDS011;37283;49.760;8.648;2023-02-12T06:57:36;54.10;;;30.13;;
51216;SDS011;37283;49.760;8.648;2023-02-12T07:00:03;52.60;;;29.60;;
51216;SDS011;37283;49.760;8.648;2023-02-12T07:02:30;51.35;;;29.70;;
51216;SDS011;37283;49.760;8.648;2023-02-12T07:04:57;53.30;;;28.90;;
51216;SDS011;37283;49.760;8.648;2023-02-12T07:07:23;57.60;;;31.63;;
51216;SDS011;37283;49.760;8.648;2023-02-12T07:09:50;54.50;;;31.70;;
51216;SDS011;37283;49.760;8.648;2023-02-12T07:12:16;56.78;;;31.70;;
51216;SDS011;37283;49.760;8.648;2023-02-12T07:14:43;55.42;;;32.83;;
51216;SDS011;37283;49.760;8.648;2023-02-12T07:17:09;60.65;;;34.20;;
51216;SDS011;37283;49.760;8.648;2023-02-12T07:19:36;61.90;;;34.70;;
51216;SDS011;37283;49.760;8.648;2023-02-12T07:22:02;55.42;;;32.58;;
51216;SDS011;37283;49.760;8.648;2023-02-12T07:24:29;61.60;;;33.25;;
51216;SDS011;37283;49.760;8.648;2023-02-12T07:26:55;62.30;;;33.47;;
51216;SDS011;37283;49.760;8.648;2023-02-12T07:29:22;59.20;;;33.28;;
51216;SDS011;37283;49.760;8.648;2023-02-12T07:31:48;57.70;;;32.80;;
51216;SDS011;37283;49.760;8.648;2023-02-12T07:34:15;63.95;;;33.67;;
51216;SDS011;37283;49.760;8.648;2023-02-12T07:36:41;62.47;;;35.42;;
51216;SDS011;37283;49.760;8.648;2023-02-12T07:39:09;59.75;;;35.33;;
51216;SDS011;37283;49.760;8.648;2023-02-12T07:41:36;65.20;;;36.17;;
51216;SDS011;37283;49.760;8.648;2023-02-12T07:44:04;61.67;;;35.95;;
51216;SDS011;37283;49.760;8.648;2023-02-12T07:46:33;63.85;;;35.80;;
51216;SDS011;37283;49.760;8.648;2023-02-12T07:49:17;64.25;;;36.72;;
51216;SDS011;37283;49.760;8.648;2023-02-12T07:51:46;63.03;;;35.88;;
51216;SDS011;37283;49.760;8.648;2023-02-12T07:54:13;63.50;;;35.25;;
51216;SDS011;37283;49.760;8.648;2023-02-12T07:56:41;61.95;;;35.63;;
51216;SDS011;37283;49.760;8.648;2023-02-12T07:59:12;64.90;;;35.13;;
51216;SDS011;37283;49.760;8.648;2023-02-12T08:01:47;56.00;;;33.92;;
51216;SDS011;37283;49.760;8.648;2023-02-12T08:04:16;61.33;;;34.30;;
51216;SDS011;37283;49.760;8.648;2023-02-12T08:06:45;60.60;;;33.67;;
51216;SDS011;37283;49.760;8.648;2023-02-12T08:09:15;61.30;;;33.70;;
51216;SDS011;37283;49.760;8.648;2023-02-12T08:11:42;54.97;;;31.80;;
51216;SDS011;37283;49.760;8.648;2023-02-12T08:14:13;56.25;;;33.00;;
51216;SDS011;37283;49.760;8.648;2023-02-12T08:16:41;59.42;;;34.97;;
51216;SDS011;37283;49.760;8.648;2023-02-12T08:19:08;59.83;;;35.53;;
51216;SDS011;37283;49.760;8.648;2023-02-12T08:21:48;62.33;;;35.88;;
51216;SDS011;37283;49.760;8.648;2023-02-12T08:24:15;58.20;;;34.30;;
51216;SDS011;37283;49.760;8.648;2023-02-12T08:26:41;63.40;;;36.55;;
51216;SDS011;37283;49.760;8.648;2023-02-12T08:29:13;60.72;;;35.53;;
51216;SDS011;37283;49.760;8.648;2023-02-12T08:31:45;63.78;;;37.63;;
51216;SDS011;37283;49.760;8.648;2023-02-12T08:34:15;61.23;;;35.80;;
51216;SDS011;37283;49.760;8.648;2023-02-12T08:36:43;66.03;;;36.65;;
51216;SDS011;37283;49.760;8.648;2023-02-12T08:39:10;67.70;;;39.63;;
51216;SDS011;37283;49.760;8.648;2023-02-12T08:41:37;62.75;;;37.05;;
51216;SDS011;37283;49.760;8.648;2023-02-12T08:44:04;63.53;;;38.97;;
51216;SDS011;37283;49.760;8.648;2023-02-12T08:46:32;65.03;;;39.05;;
51216;SDS011;37283;49.760;8.648;2023-02-12T08:49:00;59.05;;;34.40;;
51216;SDS011;37283;49.760;8.648;2023-02-12T08:51:29;60.30;;;35.17;;
51216;SDS011;37283;49.760;8.648;2023-02-12T08:54:01;60.03;;;36.42;;
51216;SDS011;37283;49.760;8.648;2023-02-12T08:56:30;61.33;;;36.13;;
51216;SDS011;37283;49.760;8.648;2023-02-12T08:58:57;64.70;;;37.50;;
51216;SDS011;37283;49.760;8.648;2023-02-12T09:01:25;59.10;;;35.90;;
51216;SDS011;37283;49.760;8.648;2023-02-12T09:03:53;56.60;;;34.57;;
51216;SDS011;37283;49.760;8.648;2023-02-12T09:06:20;61.28;;;36.88;;
51216;SDS011;37283;49.760;8.648;2023-02-12T09:08:48;55.30;;;34.45;;
51216;SDS011;37283;49.760;8.648;2023-02-12T09:11:19;61.55;;;35.53;;
51216;SDS011;37283;49.760;8.648;2023-02-12T09:14:00;59.35;;;34.45;;
51216;SDS011;37283;49.760;8.648;2023-02-12T09:16:29;61.97;;;35.63;;
51216;SDS011;37283;49.760;8.648;2023-02-12T09:18:56;56.92;;;34.97;;
51216;SDS011;37283;49.760;8.648;2023-02-12T09:21:23;59.40;;;36.35;;
51216;SDS011;37283;49.760;8.648;2023-02-12T09:23:49;59.78;;;35.72;;
51216;SDS011;37283;49.760;8.648;2023-02-12T09:26:17;60.55;;;35.92;;
51216;SDS011;37283;49.760;8.648;2023-02-12T09:28:48;59.05;;;35.85;;
51216;SDS011;37283;49.760;8.648;2023-02-12T09:31:17;59.45;;;34.85;;
51216;SDS011;37283;49.760;8.648;2023-02-12T09:33:48;55.33;;;33.95;;
51216;SDS011;37283;49.760;8.648;2023-02-12T09:36:20;53.97;;;33.92;;
51216;SDS011;37283;49.760;8.648;2023-02-12T09:38:46;50.50;;;33.25;;
51216;SDS011;37283;49.760;8.648;2023-02-12T09:51:54;50.00;;;32.75;;
51216;SDS011;37283;49.760;8.648;2023-02-12T09:54:21;51.25;;;32.45;;
51216;SDS011;37283;49.760;8.648;2023-02-12T09:56:51;51.08;;;31.77;;
51216;SDS011;37283;49.760;8.648;2023-02-12T09:59:42;51.65;;;32.50;;
51216;SDS011;37283;49.760;8.648;2023-02-12T10:02:13;47.90;;;31.40;;
51216;SDS011;37283;49.760;8.648;2023-02-12T10:04:41;52.40;;;32.10;;
51216;SDS011;37283;49.760;8.648;2023-02-12T10:12:49;53.90;;;34.03;;
51216;SDS011;37283;49.760;8.648;2023-02-12T10:15:24;51.28;;;32.80;;
51216;SDS011;37283;49.760;8.648;2023-02-12T10:18:06;48.08;;;31.02;;
51216;SDS011;37283;49.760;8.648;2023-02-12T10:20:45;46.85;;;32.10;;
51216;SDS011;37283;49.760;8.648;2023-02-12T10:25:57;47.58;;;30.98;;
51216;SDS011;37283;49.760;8.648;2023-02-12T10:28:27;48.90;;;31.75;;
51216;SDS011;37283;49.760;8.648;2023-02-12T10:30:59;46.08;;;29.95;;
51216;SDS011;37283;49.760;8.648;2023-02-12T10:33:36;48.85;;;30.73;;
51216;SDS011;37283;49.760;8.648;2023-02-12T10:41:36;51.28;;;33.15;;
51216;SDS011;37283;49.760;8.648;2023-02-12T10:44:08;49.88;;;33.78;;
51216;SDS011;37283;49.760;8.648;2023-02-12T10:46:35;54.22;;;34.00;;
51216;SDS011;37283;49.760;8.648;2023-02-12T10:49:02;48.00;;;31.60;;
51216;SDS011;37283;49.760;8.648;2023-02-12T10:51:34;49.38;;;32.97;;
51216;SDS011;37283;49.760;8.648;2023-02-12T10:54:30;49.80;;;32.85;;
51216;SDS011;37283;49.760;8.648;2023-02-12T11:00:22;45.97;;;31.23;;
51216;SDS011;37283;49.760;8.648;2023-02-12T11:05:39;48.75;;;31.40;;
51216;SDS011;37283;49.760;8.648;2023-02-12T11:08:11;48.70;;;30.95;;
51216;SDS011;37283;49.760;8.648;2023-02-12T11:10:53;50.20;;;30.02;;
51216;SDS011;37283;49.760;8.648;2023-02-12T11:13:26;46.20;;;30.75;;
51216;SDS011;37283;49.760;8.648;2023-02-12T11:15:53;45.75;;;30.90;;
51216;SDS011;37283;49.760;8.648;2023-02-12T11:18:21;43.67;;;29.95;;
51216;SDS011;37283;49.760;8.648;2023-02-12T11:20:55;47.38;;;30.80;;
51216;SDS011;37283;49.760;8.648;2023-02-12T11:23:28;51.50;;;31.88;;
51216;SDS011;37283;49.760;8.648;2023-02-12T11:26:08;47.50;;;32.15;;
51216;SDS011;37283;49.760;8.648;2023-02-12T11:31:24;49.25;;;30.70;;
51216;SDS011;37283;49.760;8.648;2023-02-12T11:36:29;45.85;;;31.10;;
51216;SDS011;37283;49.760;8.648;2023-02-12T11:38:58;46.22;;;30.60;;
51216;SDS011;37283;49.760;8.648;2023-02-12T11:41:28;44.90;;;29.02;;
51216;SDS011;37283;49.760;8.648;2023-02-12T11:43:59;43.15;;;29.73;;
51216;SDS011;37283;49.760;8.648;2023-02-12T11:46:27;40.22;;;28.05;;
51216;SDS011;37283;49.760;8.648;2023-02-12T11:48:54;37.47;;;25.30;;
51216;SDS011;37283;49.760;8.648;2023-02-12T11:51:26;38.85;;;25.92;;
51216;SDS011;37283;49.760;8.648;2023-02-12T11:53:55;36.33;;;24.25;;
51216;SDS011;37283;49.760;8.648;2023-02-12T11:56:24;39.13;;;26.23;;
51216;SDS011;37283;49.760;8.648;2023-02-12T11:58:50;35.42;;;23.75;;
51216;SDS011;37283;49.760;8.648;2023-02-12T12:01:29;34.72;;;23.15;;
51216;SDS011;37283;49.760;8.648;2023-02-12T12:04:02;32.50;;;22.55;;
51216;SDS011;37283;49.760;8.648;2023-02-12T12:11:39;28.52;;;20.17;;
51216;SDS011;37283;49.760;8.648;2023-02-12T12:14:15;28.08;;;19.40;;
51216;SDS011;37283;49.760;8.648;2023-02-12T12:16:57;31.63;;;21.52;;
51216;SDS011;37283;49.760;8.648;2023-02-12T12:22:42;22.02;;;16.48;;
51216;SDS011;37283;49.760;8.648;2023-02-12T12:25:23;24.20;;;16.77;;
51216;SDS011;37283;49.760;8.648;2023-02-12T12:27:57;20.95;;;15.25;;
51216;SDS011;37283;49.760;8.648;2023-02-12T12:33:31;29.65;;;19.15;;
51216;SDS011;37283;49.760;8.648;2023-02-12T12:44:29;28.08;;;19.45;;
51216;SDS011;37283;49.760;8.648;2023-02-12T12:50:16;27.92;;;18.50;;
51216;SDS011;37283;49.760;8.648;2023-02-12T13:04:59;27.70;;;17.65;;
51216;SDS011;37283;49.760;8.648;2023-02-12T13:07:25;24.70;;;16.65;;
51216;SDS011;37283;49.760;8.648;2023-02-12T13:12:51;26.98;;;18.33;;
51216;SDS011;37283;49.760;8.648;2023-02-12T13:15:30;26.17;;;17.83;;
51216;SDS011;37283;49.760;8.648;2023-02-12T13:18:08;22.77;;;15.88;;
51216;SDS011;37283;49.760;8.648;2023-02-12T13:23:38;25.57;;;17.17;;
51216;SDS011;37283;49.760;8.648;2023-02-12T13:28:45;29.42;;;19.35;;
51216;SDS011;37283;49.760;8.648;2023-02-12T13:31:19;25.85;;;19.17;;
51216;SDS011;37283;49.760;8.648;2023-02-12T13:33:59;24.30;;;16.83;;
51216;SDS011;37283;49.760;8.648;2023-02-12T13:36:27;25.52;;;17.17;;
51216;SDS011;37283;49.760;8.648;2023-02-12T13:38:55;31.48;;;21.02;;
51216;SDS011;37283;49.760;8.648;2023-02-12T13:41:23;26.77;;;19.20;;
51216;SDS011;37283;49.760;8.648;2023-02-12T13:46:46;27.08;;;19.30;;
51216;SDS011;37283;49.760;8.648;2023-02-12T13:52:05;25.75;;;18.00;;
51216;SDS011;37283;49.760;8.648;2023-02-12T13:54:36;24.98;;;16.77;;
51216;SDS011;37283;49.760;8.648;2023-02-12T13:57:13;25.02;;;17.52;;
51216;SDS011;37283;49.760;8.648;2023-02-12T13:59:42;24.50;;;16.08;;
51216;SDS011;37283;49.760;8.648;2023-02-12T14:05:13;22.30;;;16.05;;
51216;SDS011;37283;49.760;8.648;2023-02-12T14:07:42;19.60;;;14.43;;
51216;SDS011;37283;49.760;8.648;2023-02-12T14:11:01;21.23;;;15.70;;
51216;SDS011;37283;49.760;8.648;2023-02-12T14:13:16;20.75;;;15.23;;
51216;SDS011;37283;49.760;8.648;2023-02-12T14:15:52;24.77;;;16.40;;
51216;SDS011;37283;49.760;8.648;2023-02-12T14:18:22;22.65;;;15.68;;
51216;SDS011;37283;49.760;8.648;2023-02-12T14:23:52;25.80;;;16.80;;
51216;SDS011;37283;49.760;8.648;2023-02-12T14:26:19;24.20;;;16.85;;
51216;SDS011;37283;49.760;8.648;2023-02-12T14:29:00;22.98;;;16.77;;
51216;SDS011;37283;49.760;8.648;2023-02-12T14:31:32;25.58;;;18.15;;
51216;SDS011;37283;49.760;8.648;2023-02-12T14:39:26;28.13;;;18.80;;
51216;SDS011;37283;49.760;8.648;2023-02-12T14:47:08;27.08;;;19.10;;
51216;SDS011;37283;49.760;8.648;2023-02-12T14:49:46;30.80;;;20.63;;
51216;SDS011;37283;49.760;8.648;2023-02-12T14:52:15;27.73;;;19.00;;
51216;SDS011;37283;49.760;8.648;2023-02-12T14:54:46;27.52;;;19.42;;
51216;SDS011;37283;49.760;8.648;2023-02-12T14:57:20;28.40;;;20.02;;
51216;SDS011;37283;49.760;8.648;2023-02-12T14:59:48;29.65;;;20.48;;
51216;SDS011;37283;49.760;8.648;2023-02-12T15:02:19;31.20;;;19.70;;
51216;SDS011;37283;49.760;8.648;2023-02-12T15:04:49;30.98;;;20.67;;
51216;SDS011;37283;49.760;8.648;2023-02-12T15:07:23;26.58;;;19.08;;
51216;SDS011;37283;49.760;8.648;2023-02-12T15:09:56;28.00;;;20.05;;
51216;SDS011;37283;49.760;8.648;2023-02-12T15:15:32;28.63;;;20.35;;
51216;SDS011;37283;49.760;8.648;2023-02-12T15:21:23;28.80;;;19.88;;
51216;SDS011;37283;49.760;8.648;2023-02-12T15:24:08;27.80;;;19.88;;
51216;SDS011;37283;49.760;8.648;2023-02-12T15:26:39;27.23;;;18.77;;
51216;SDS011;37283;49.760;8.648;2023-02-12T15:29:15;27.38;;;20.13;;
51216;SDS011;37283;49.760;8.648;2023-02-12T15:31:48;29.95;;;20.85;;
51216;SDS011;37283;49.760;8.648;2023-02-12T15:34:17;28.35;;;19.85;;
51216;SDS011;37283;49.760;8.648;2023-02-12T15:36:46;29.48;;;21.58;;
51216;SDS011;37283;49.760;8.648;2023-02-12T15:39:15;29.33;;;21.63;;
51216;SDS011;37283;49.760;8.648;2023-02-12T15:41:45;33.88;;;22.98;;
51216;SDS011;37283;49.760;8.648;2023-02-12T15:46:54;32.88;;;22.55;;
51216;SDS011;37283;49.760;8.648;2023-02-12T15:49:27;31.67;;;22.60;;
51216;SDS011;37283;49.760;8.648;2023-02-12T15:51:56;28.00;;;22.13;;
51216;SDS011;37283;49.760;8.648;2023-02-12T15:54:24;31.88;;;22.05;;
51216;SDS011;37283;49.760;8.648;2023-02-12T15:56:50;31.40;;;23.13;;
51216;SDS011;37283;49.760;8.648;2023-02-12T15:59:19;29.67;;;21.88;;
51216;SDS011;37283;49.760;8.648;2023-02-12T16:01:57;32.40;;;22.75;;
51216;SDS011;37283;49.760;8.648;2023-02-12T16:04:32;29.17;;;21.45;;
51216;SDS011;37283;49.760;8.648;2023-02-12T16:07:01;29.10;;;22.08;;
51216;SDS011;37283;49.760;8.648;2023-02-12T16:09:32;28.17;;;21.40;;
51216;SDS011;37283;49.760;8.648;2023-02-12T16:12:00;26.02;;;19.63;;
51216;SDS011;37283;49.760;8.648;2023-02-12T16:14:46;26.67;;;20.80;;
51216;SDS011;37283;49.760;8.648;2023-02-12T16:17:24;30.38;;;21.08;;
51216;SDS011;37283;49.760;8.648;2023-02-12T16:19:57;29.08;;;21.10;;
51216;SDS011;37283;49.760;8.648;2023-02-12T16:22:48;26.45;;;19.58;;
51216;SDS011;37283;49.760;8.648;2023-02-12T16:25:15;25.02;;;19.10;;
51216;SDS011;37283;49.760;8.648;2023-02-12T16:27:55;24.25;;;19.02;;
51216;SDS011;37283;49.760;8.648;2023-02-12T16:30:28;25.77;;;18.77;;
51216;SDS011;37283;49.760;8.648;2023-02-12T16:32:56;27.33;;;19.42;;
51216;SDS011;37283;49.760;8.648;2023-02-12T16:35:33;29.48;;;20.42;;
51216;SDS011;37283;49.760;8.648;2023-02-12T16:38:02;28.98;;;19.85;;
51216;SDS011;37283;49.760;8.648;2023-02-12T16:41:14;24.77;;;18.25;;
51216;SDS011;37283;49.760;8.648;2023-02-12T16:43:45;27.30;;;19.55;;
51216;SDS011;37283;49.760;8.648;2023-02-12T16:46:14;26.42;;;19.08;;
51216;SDS011;37283;49.760;8.648;2023-02-12T16:48:46;28.50;;;18.95;;
51216;SDS011;37283;49.760;8.648;2023-02-12T16:53:48;24.95;;;18.75;;
51216;SDS011;37283;49.760;8.648;2023-02-12T16:56:16;27.95;;;19.83;;
51216;SDS011;37283;49.760;8.648;2023-02-12T16:59:09;27.05;;;20.60;;
51216;SDS011;37283;49.760;8.648;2023-02-12T17:01:34;27.60;;;19.77;;
51216;SDS011;37283;49.760;8.648;2023-02-12T17:04:06;28.33;;;20.65;;
51216;SDS011;37283;49.760;8.648;2023-02-12T17:06:33;28.23;;;21.55;;
51216;SDS011;37283;49.760;8.648;2023-02-12T17:09:00;31.17;;;22.98;;